sensor_id;sensor_type;location;lat;lon;timestamp;temperature;humidity
8220;DHT22;4151;51.110;7.020;2023-02-01T00:00:05;6.10;99.90
8220;DHT22;4151;51.110;7.020;2023-02-01T00:02:30;6.10;99.90
8220;DHT22;4151;51.110;7.020;2023-02-01T00:04:56;6.10;99.90
8220;DHT22;4151;51.110;7.020;2023-02-01T00:07:22;6.10;99.90
8220;DHT22;4151;51.110;7.020;2023-02-01T00:09:47;6.10;99.90
8220;DHT22;4151;51.110;7.020;2023-02-01T00:12:13;6.20;99.90
8220;DHT22;4151;51.110;7.020;2023-02-01T00:14:38;6.20;99.90
8220;DHT22;4151;51.110;7.020;2023-02-01T00:17:07;6.20;99.90
8220;DHT22;4151;51.110;7.020;2023-02-01T00:19:33;6.20;99.90
8220;DHT22;4151;51.110;7.020;2023-02-01T00:21:59;6.20;99.90
8220;DHT22;4151;51.110;7.020;2023-02-01T00:24:25;6.20;99.90
8220;DHT22;4151;51.110;7.020;2023-02-01T00:26:50;6.20;99.90
8220;DHT22;4151;51.110;7.020;2023-02-01T00:29:18;6.20;99.90
8220;DHT22;4151;51.110;7.020;2023-02-01T00:31:44;6.20;99.90
8220;DHT22;4151;51.110;7.020;2023-02-01T00:34:15;6.20;99.90
8220;DHT22;4151;51.110;7.020;2023-02-01T00:36:42;6.20;99.90
8220;DHT22;4151;51.110;7.020;2023-02-01T00:39:09;6.20;99.90
8220;DHT22;4151;51.110;7.020;2023-02-01T00:41:35;6.30;99.90
8220;DHT22;4151;51.110;7.020;2023-02-01T00:44:01;6.30;99.90
8220;DHT22;4151;51.110;7.020;2023-02-01T00:46:27;6.30;99.90
8220;DHT22;4151;51.110;7.020;2023-02-01T00:48:53;6.30;99.90
8220;DHT22;4151;51.110;7.020;2023-02-01T00:51:22;6.30;99.90
8220;DHT22;4151;51.110;7.020;2023-02-01T00:53:48;6.30;99.90
8220;DHT22;4151;51.110;7.020;2023-02-01T00:56:15;6.20;99.90
8220;DHT22;4151;51.110;7.020;2023-02-01T00:58:40;6.30;99.90
8220;DHT22;4151;51.110;7.020;2023-02-01T01:01:13;6.20;99.90
8220;DHT22;4151;51.110;7.020;2023-02-01T01:03:41;6.20;99.90
8220;DHT22;4151;51.110;7.020;2023-02-01T01:06:15;6.20;99.90
8220;DHT22;4151;51.110;7.020;2023-02-01T01:08:42;6.10;99.90
8220;DHT22;4151;51.110;7.020;2023-02-01T01:11:13;6.10;99.90
8220;DHT22;4151;51.110;7.020;2023-02-01T01:13:40;6.10;99.90
8220;DHT22;4151;51.110;7.020;2023-02-01T01:16:06;6.00;99.90
8220;DHT22;4151;51.110;7.020;2023-02-01T01:18:33;6.00;99.90
8220;DHT22;4151;51.110;7.020;2023-02-01T01:20:59;5.90;99.90
8220;DHT22;4151;51.110;7.020;2023-02-01T01:23:25;5.90;99.90
8220;DHT22;4151;51.110;7.020;2023-02-01T01:25:51;6.00;99.90
8220;DHT22;4151;51.110;7.020;2023-02-01T01:28:17;6.00;99.90
8220;DHT22;4151;51.110;7.020;2023-02-01T01:30:42;6.00;99.90
8220;DHT22;4151;51.110;7.020;2023-02-01T01:33:08;6.00;99.90
8220;DHT22;4151;51.110;7.020;2023-02-01T01:35:34;5.90;99.90
8220;DHT22;4151;51.110;7.020;2023-02-01T01:38:00;5.90;99.90
8220;DHT22;4151;51.110;7.020;2023-02-01T01:40:26;5.90;99.90
8220;DHT22;4151;51.110;7.020;2023-02-01T01:42:52;5.90;99.90
8220;DHT22;4151;51.110;7.020;2023-02-01T01:47:48;5.90;99.90
8220;DHT22;4151;51.110;7.020;2023-02-01T01:50:19;5.90;99.90
8220;DHT22;4151;51.110;7.020;2023-02-01T01:52:48;5.90;99.90
8220;DHT22;4151;51.110;7.020;2023-02-01T01:55:17;5.80;99.90
8220;DHT22;4151;51.110;7.020;2023-02-01T01:57:48;5.80;99.90
8220;DHT22;4151;51.110;7.020;2023-02-01T02:00:18;5.80;99.90
8220;DHT22;4151;51.110;7.020;2023-02-01T02:02:47;5.70;99.90
8220;DHT22;4151;51.110;7.020;2023-02-01T02:05:13;5.70;99.90
8220;DHT22;4151;51.110;7.020;2023-02-01T02:07:43;5.70;99.90
8220;DHT22;4151;51.110;7.020;2023-02-01T02:10:11;5.60;99.90
8220;DHT22;4151;51.110;7.020;2023-02-01T02:12:40;5.60;99.90
8220;DHT22;4151;51.110;7.020;2023-02-01T02:15:08;5.60;99.90
8220;DHT22;4151;51.110;7.020;2023-02-01T02:23:01;5.60;99.90
8220;DHT22;4151;51.110;7.020;2023-02-01T02:25:38;5.60;99.90
8220;DHT22;4151;51.110;7.020;2023-02-01T02:31:23;5.70;99.90
8220;DHT22;4151;51.110;7.020;2023-02-01T02:33:54;5.60;99.90
8220;DHT22;4151;51.110;7.020;2023-02-01T02:39:32;5.60;99.90
8220;DHT22;4151;51.110;7.020;2023-02-01T02:42:28;5.60;99.90
8220;DHT22;4151;51.110;7.020;2023-02-01T02:46:01;5.60;99.90
8220;DHT22;4151;51.110;7.020;2023-02-01T02:48:46;5.60;99.90
8220;DHT22;4151;51.110;7.020;2023-02-01T02:51:27;5.60;99.90
8220;DHT22;4151;51.110;7.020;2023-02-01T02:54:22;5.50;99.90
8220;DHT22;4151;51.110;7.020;2023-02-01T02:57:09;5.50;99.90
8220;DHT22;4151;51.110;7.020;2023-02-01T02:59:58;5.50;99.90
8220;DHT22;4151;51.110;7.020;2023-02-01T03:02:45;5.40;99.90
8220;DHT22;4151;51.110;7.020;2023-02-01T03:05:37;5.50;99.90
8220;DHT22;4151;51.110;7.020;2023-02-01T03:08:38;5.50;99.90
8220;DHT22;4151;51.110;7.020;2023-02-01T03:11:15;5.60;99.90
8220;DHT22;4151;51.110;7.020;2023-02-01T03:13:54;5.60;99.90
8220;DHT22;4151;51.110;7.020;2023-02-01T03:19:03;5.50;99.90
8220;DHT22;4151;51.110;7.020;2023-02-01T03:22:20;5.60;99.90
8220;DHT22;4151;51.110;7.020;2023-02-01T03:24:41;5.70;99.90
8220;DHT22;4151;51.110;7.020;2023-02-01T03:29:40;5.70;99.90
8220;DHT22;4151;51.110;7.020;2023-02-01T03:32:07;5.60;99.90
8220;DHT22;4151;51.110;7.020;2023-02-01T03:34:34;5.60;99.90
8220;DHT22;4151;51.110;7.020;2023-02-01T03:37:04;5.60;99.90
8220;DHT22;4151;51.110;7.020;2023-02-01T03:39:47;5.60;99.90
8220;DHT22;4151;51.110;7.020;2023-02-01T03:42:21;5.60;99.90
8220;DHT22;4151;51.110;7.020;2023-02-01T03:47:27;5.60;99.90
8220;DHT22;4151;51.110;7.020;2023-02-01T03:50:04;5.60;99.90
8220;DHT22;4151;51.110;7.020;2023-02-01T03:52:36;5.60;99.90
8220;DHT22;4151;51.110;7.020;2023-02-01T03:55:04;5.60;99.90
8220;DHT22;4151;51.110;7.020;2023-02-01T03:57:33;5.60;99.90
8220;DHT22;4151;51.110;7.020;2023-02-01T04:00:29;5.60;99.90
8220;DHT22;4151;51.110;7.020;2023-02-01T04:02:54;5.70;99.90
8220;DHT22;4151;51.110;7.020;2023-02-01T04:05:20;5.70;99.90
8220;DHT22;4151;51.110;7.020;2023-02-01T04:07:46;5.70;99.90
8220;DHT22;4151;51.110;7.020;2023-02-01T04:10:12;5.70;99.90
8220;DHT22;4151;51.110;7.020;2023-02-01T04:12:39;5.70;99.90
8220;DHT22;4151;51.110;7.020;2023-02-01T04:15:05;5.70;99.90
8220;DHT22;4151;51.110;7.020;2023-02-01T04:17:31;5.70;99.90
8220;DHT22;4151;51.110;7.020;2023-02-01T04:19:56;5.70;99.90
8220;DHT22;4151;51.110;7.020;2023-02-01T04:22:22;5.70;99.90
8220;DHT22;4151;51.110;7.020;2023-02-01T04:24:47;5.70;99.90
8220;DHT22;4151;51.110;7.020;2023-02-01T04:27:13;5.70;99.90
8220;DHT22;4151;51.110;7.020;2023-02-01T04:29:39;5.80;99.90
8220;DHT22;4151;51.110;7.020;2023-02-01T04:32:04;5.80;99.90
8220;DHT22;4151;51.110;7.020;2023-02-01T04:34:30;5.80;99.90
8220;DHT22;4151;51.110;7.020;2023-02-01T04:36:56;5.80;99.90
8220;DHT22;4151;51.110;7.020;2023-02-01T04:39:21;5.70;99.90
8220;DHT22;4151;51.110;7.020;2023-02-01T04:41:47;5.70;99.90
8220;DHT22;4151;51.110;7.020;2023-02-01T04:44:14;5.80;99.90
8220;DHT22;4151;51.110;7.020;2023-02-01T04:46:41;5.80;99.90
8220;DHT22;4151;51.110;7.020;2023-02-01T04:49:07;5.80;99.90
8220;DHT22;4151;51.110;7.020;2023-02-01T04:51:33;5.80;99.90
8220;DHT22;4151;51.110;7.020;2023-02-01T04:53:59;5.80;99.90
8220;DHT22;4151;51.110;7.020;2023-02-01T04:56:24;5.70;99.90
8220;DHT22;4151;51.110;7.020;2023-02-01T04:58:50;5.70;99.90
8220;DHT22;4151;51.110;7.020;2023-02-01T05:01:15;5.70;99.90
8220;DHT22;4151;51.110;7.020;2023-02-01T05:03:41;5.70;99.90
8220;DHT22;4151;51.110;7.020;2023-02-01T05:06:07;5.70;99.90
8220;DHT22;4151;51.110;7.020;2023-02-01T05:08:33;5.60;99.90
8220;DHT22;4151;51.110;7.020;2023-02-01T05:10:58;5.60;99.90
8220;DHT22;4151;51.110;7.020;2023-02-01T05:13:25;5.60;99.90
8220;DHT22;4151;51.110;7.020;2023-02-01T05:16:09;5.60;99.90
8220;DHT22;4151;51.110;7.020;2023-02-01T05:18:34;5.50;99.90
8220;DHT22;4151;51.110;7.020;2023-02-01T05:21:00;5.50;99.90
8220;DHT22;4151;51.110;7.020;2023-02-01T05:23:26;5.50;99.90
8220;DHT22;4151;51.110;7.020;2023-02-01T05:25:51;5.50;99.90
8220;DHT22;4151;51.110;7.020;2023-02-01T05:28:17;5.40;99.90
8220;DHT22;4151;51.110;7.020;2023-02-01T05:30:43;5.40;99.90
8220;DHT22;4151;51.110;7.020;2023-02-01T05:33:08;5.40;99.90
8220;DHT22;4151;51.110;7.020;2023-02-01T05:35:34;5.30;99.90
8220;DHT22;4151;51.110;7.020;2023-02-01T05:37:59;5.30;99.90
8220;DHT22;4151;51.110;7.020;2023-02-01T05:40:25;5.20;99.90
8220;DHT22;4151;51.110;7.020;2023-02-01T05:42:50;5.20;99.90
8220;DHT22;4151;51.110;7.020;2023-02-01T05:45:16;5.20;99.90
8220;DHT22;4151;51.110;7.020;2023-02-01T05:47:42;5.20;99.90
8220;DHT22;4151;51.110;7.020;2023-02-01T05:50:08;5.20;99.90
8220;DHT22;4151;51.110;7.020;2023-02-01T05:52:33;5.20;99.90
8220;DHT22;4151;51.110;7.020;2023-02-01T05:54:59;5.20;99.90
8220;DHT22;4151;51.110;7.020;2023-02-01T05:57:25;5.20;99.90
8220;DHT22;4151;51.110;7.020;2023-02-01T05:59:50;5.30;99.90
8220;DHT22;4151;51.110;7.020;2023-02-01T06:02:16;5.30;99.90
8220;DHT22;4151;51.110;7.020;2023-02-01T06:04:42;5.20;99.90
8220;DHT22;4151;51.110;7.020;2023-02-01T06:07:08;5.20;99.90
8220;DHT22;4151;51.110;7.020;2023-02-01T06:09:35;5.10;99.90
8220;DHT22;4151;51.110;7.020;2023-02-01T06:12:02;5.10;99.90
8220;DHT22;4151;51.110;7.020;2023-02-01T06:14:28;5.10;99.90
8220;DHT22;4151;51.110;7.020;2023-02-01T06:16:54;5.10;99.90
8220;DHT22;4151;51.110;7.020;2023-02-01T06:19:20;5.10;99.90
8220;DHT22;4151;51.110;7.020;2023-02-01T06:21:46;5.20;99.90
8220;DHT22;4151;51.110;7.020;2023-02-01T06:24:12;5.10;99.90
8220;DHT22;4151;51.110;7.020;2023-02-01T06:26:38;5.10;99.90
8220;DHT22;4151;51.110;7.020;2023-02-01T06:29:05;5.10;99.90
8220;DHT22;4151;51.110;7.020;2023-02-01T06:31:32;5.20;99.90
8220;DHT22;4151;51.110;7.020;2023-02-01T06:33:57;5.20;99.90
8220;DHT22;4151;51.110;7.020;2023-02-01T06:36:23;5.30;99.90
8220;DHT22;4151;51.110;7.020;2023-02-01T06:38:49;5.30;99.90
8220;DHT22;4151;51.110;7.020;2023-02-01T06:41:14;5.30;99.90
8220;DHT22;4151;51.110;7.020;2023-02-01T06:43:40;5.30;99.90
8220;DHT22;4151;51.110;7.020;2023-02-01T06:46:08;5.40;99.90
8220;DHT22;4151;51.110;7.020;2023-02-01T06:48:35;5.40;99.90
8220;DHT22;4151;51.110;7.020;2023-02-01T06:51:00;5.30;99.90
8220;DHT22;4151;51.110;7.020;2023-02-01T06:53:26;5.40;99.90
8220;DHT22;4151;51.110;7.020;2023-02-01T06:55:56;5.40;99.90
8220;DHT22;4151;51.110;7.020;2023-02-01T06:58:23;5.40;99.90
8220;DHT22;4151;51.110;7.020;2023-02-01T07:00:48;5.40;99.90
8220;DHT22;4151;51.110;7.020;2023-02-01T07:03:14;5.40;99.90
8220;DHT22;4151;51.110;7.020;2023-02-01T07:05:40;5.40;99.90
8220;DHT22;4151;51.110;7.020;2023-02-01T07:08:06;5.40;99.90
8220;DHT22;4151;51.110;7.020;2023-02-01T07:10:33;5.40;99.90
8220;DHT22;4151;51.110;7.020;2023-02-01T07:12:59;5.40;99.90
8220;DHT22;4151;51.110;7.020;2023-02-01T07:15:25;5.40;99.90
8220;DHT22;4151;51.110;7.020;2023-02-01T07:17:50;5.40;99.90
8220;DHT22;4151;51.110;7.020;2023-02-01T07:20:16;5.40;99.90
8220;DHT22;4151;51.110;7.020;2023-02-01T07:22:42;5.40;99.90
8220;DHT22;4151;51.110;7.020;2023-02-01T07:25:08;5.50;99.90
8220;DHT22;4151;51.110;7.020;2023-02-01T07:27:37;5.40;99.90
8220;DHT22;4151;51.110;7.020;2023-02-01T07:30:04;5.40;99.90
8220;DHT22;4151;51.110;7.020;2023-02-01T07:32:30;5.50;99.90
8220;DHT22;4151;51.110;7.020;2023-02-01T07:34:56;5.50;99.90
8220;DHT22;4151;51.110;7.020;2023-02-01T07:37:22;5.50;99.90
8220;DHT22;4151;51.110;7.020;2023-02-01T07:39:52;5.50;99.90
8220;DHT22;4151;51.110;7.020;2023-02-01T07:42:18;5.50;99.90
8220;DHT22;4151;51.110;7.020;2023-02-01T07:44:44;5.50;99.90
8220;DHT22;4151;51.110;7.020;2023-02-01T07:47:09;5.50;99.90
8220;DHT22;4151;51.110;7.020;2023-02-01T07:49:35;5.50;99.90
8220;DHT22;4151;51.110;7.020;2023-02-01T07:52:00;5.50;99.90
8220;DHT22;4151;51.110;7.020;2023-02-01T07:54:26;5.50;99.90
8220;DHT22;4151;51.110;7.020;2023-02-01T07:56:52;5.50;99.90
8220;DHT22;4151;51.110;7.020;2023-02-01T07:59:17;5.50;99.90
8220;DHT22;4151;51.110;7.020;2023-02-01T08:01:43;5.50;99.90
8220;DHT22;4151;51.110;7.020;2023-02-01T08:04:11;5.50;99.90
8220;DHT22;4151;51.110;7.020;2023-02-01T08:06:37;5.50;99.90
8220;DHT22;4151;51.110;7.020;2023-02-01T08:09:04;5.50;99.90
8220;DHT22;4151;51.110;7.020;2023-02-01T08:11:30;5.50;99.90
8220;DHT22;4151;51.110;7.020;2023-02-01T08:13:57;5.50;99.90
8220;DHT22;4151;51.110;7.020;2023-02-01T08:16:23;5.50;99.90
8220;DHT22;4151;51.110;7.020;2023-02-01T08:18:50;5.50;99.90
8220;DHT22;4151;51.110;7.020;2023-02-01T08:21:21;5.50;99.90
8220;DHT22;4151;51.110;7.020;2023-02-01T08:23:47;5.50;99.90
8220;DHT22;4151;51.110;7.020;2023-02-01T08:26:17;5.50;99.90
8220;DHT22;4151;51.110;7.020;2023-02-01T08:28:46;5.50;99.90
8220;DHT22;4151;51.110;7.020;2023-02-01T08:31:14;5.50;99.90
8220;DHT22;4151;51.110;7.020;2023-02-01T08:33:41;5.50;99.90
8220;DHT22;4151;51.110;7.020;2023-02-01T08:36:08;5.50;99.90
8220;DHT22;4151;51.110;7.020;2023-02-01T08:38:38;5.50;99.90
8220;DHT22;4151;51.110;7.020;2023-02-01T08:41:09;5.50;99.90
8220;DHT22;4151;51.110;7.020;2023-02-01T08:43:35;5.50;99.90
8220;DHT22;4151;51.110;7.020;2023-02-01T08:46:01;5.60;99.90
8220;DHT22;4151;51.110;7.020;2023-02-01T08:48:26;5.60;99.90
8220;DHT22;4151;51.110;7.020;2023-02-01T08:50:52;5.60;99.90
8220;DHT22;4151;51.110;7.020;2023-02-01T08:53:17;5.60;99.90
8220;DHT22;4151;51.110;7.020;2023-02-01T08:55:45;5.60;99.90
8220;DHT22;4151;51.110;7.020;2023-02-01T08:58:11;5.60;99.90
8220;DHT22;4151;51.110;7.020;2023-02-01T09:00:39;5.60;99.90
8220;DHT22;4151;51.110;7.020;2023-02-01T09:03:05;5.60;99.90
8220;DHT22;4151;51.110;7.020;2023-02-01T09:05:30;5.60;99.90
8220;DHT22;4151;51.110;7.020;2023-02-01T09:07:56;5.60;99.90
8220;DHT22;4151;51.110;7.020;2023-02-01T09:10:22;5.60;99.90
8220;DHT22;4151;51.110;7.020;2023-02-01T09:12:47;5.60;99.90
8220;DHT22;4151;51.110;7.020;2023-02-01T09:15:13;5.70;99.90
8220;DHT22;4151;51.110;7.020;2023-02-01T09:17:38;5.60;99.90
8220;DHT22;4151;51.110;7.020;2023-02-01T09:20:08;5.70;99.90
8220;DHT22;4151;51.110;7.020;2023-02-01T09:22:34;5.70;99.90
8220;DHT22;4151;51.110;7.020;2023-02-01T09:24:59;5.70;99.90
8220;DHT22;4151;51.110;7.020;2023-02-01T09:27:25;5.70;99.90
8220;DHT22;4151;51.110;7.020;2023-02-01T09:29:50;5.70;99.90
8220;DHT22;4151;51.110;7.020;2023-02-01T09:32:22;5.70;99.90
8220;DHT22;4151;51.110;7.020;2023-02-01T09:34:49;5.70;99.90
8220;DHT22;4151;51.110;7.020;2023-02-01T09:37:15;5.70;99.90
8220;DHT22;4151;51.110;7.020;2023-02-01T09:39:41;5.70;99.90
8220;DHT22;4151;51.110;7.020;2023-02-01T09:47:46;5.80;99.90
8220;DHT22;4151;51.110;7.020;2023-02-01T09:50:16;5.80;99.90
8220;DHT22;4151;51.110;7.020;2023-02-01T09:53:15;5.80;99.90
8220;DHT22;4151;51.110;7.020;2023-02-01T09:55:46;5.90;99.90
8220;DHT22;4151;51.110;7.020;2023-02-01T09:58:32;5.90;99.90
8220;DHT22;4151;51.110;7.020;2023-02-01T10:01:01;5.90;99.90
8220;DHT22;4151;51.110;7.020;2023-02-01T10:03:30;5.80;99.90
8220;DHT22;4151;51.110;7.020;2023-02-01T10:08:29;5.90;99.90
8220;DHT22;4151;51.110;7.020;2023-02-01T10:11:15;5.90;99.90
8220;DHT22;4151;51.110;7.020;2023-02-01T10:16:30;5.90;99.90
8220;DHT22;4151;51.110;7.020;2023-02-01T10:19:20;6.00;99.90
8220;DHT22;4151;51.110;7.020;2023-02-01T10:21:59;5.90;99.90
8220;DHT22;4151;51.110;7.020;2023-02-01T10:24:51;6.00;99.90
8220;DHT22;4151;51.110;7.020;2023-02-01T10:27:32;6.00;99.90
8220;DHT22;4151;51.110;7.020;2023-02-01T10:30:00;6.00;99.90
8220;DHT22;4151;51.110;7.020;2023-02-01T10:32:32;6.00;99.90
8220;DHT22;4151;51.110;7.020;2023-02-01T10:35:08;6.10;99.90
8220;DHT22;4151;51.110;7.020;2023-02-01T10:37:41;6.10;99.90
8220;DHT22;4151;51.110;7.020;2023-02-01T10:40:25;6.20;99.90
8220;DHT22;4151;51.110;7.020;2023-02-01T10:43:01;6.20;99.90
8220;DHT22;4151;51.110;7.020;2023-02-01T10:45:29;6.30;99.90
8220;DHT22;4151;51.110;7.020;2023-02-01T10:47:57;6.30;99.90
8220;DHT22;4151;51.110;7.020;2023-02-01T10:50:41;6.30;99.90
8220;DHT22;4151;51.110;7.020;2023-02-01T10:55:47;6.40;99.90
8220;DHT22;4151;51.110;7.020;2023-02-01T10:58:18;6.40;99.90
8220;DHT22;4151;51.110;7.020;2023-02-01T11:01:07;6.40;99.90
8220;DHT22;4151;51.110;7.020;2023-02-01T11:06:11;6.40;99.90
8220;DHT22;4151;51.110;7.020;2023-02-01T11:08:44;6.50;99.90
8220;DHT22;4151;51.110;7.020;2023-02-01T11:11:10;6.50;99.90
8220;DHT22;4151;51.110;7.020;2023-02-01T11:13:39;6.50;99.90
8220;DHT22;4151;51.110;7.020;2023-02-01T11:16:05;6.50;99.90
8220;DHT22;4151;51.110;7.020;2023-02-01T11:18:35;6.50;99.90
8220;DHT22;4151;51.110;7.020;2023-02-01T11:21:03;6.50;99.90
8220;DHT22;4151;51.110;7.020;2023-02-01T11:23:30;6.60;99.90
8220;DHT22;4151;51.110;7.020;2023-02-01T11:26:14;6.60;99.90
8220;DHT22;4151;51.110;7.020;2023-02-01T11:28:54;6.70;99.90
8220;DHT22;4151;51.110;7.020;2023-02-01T11:31:22;6.70;99.90
8220;DHT22;4151;51.110;7.020;2023-02-01T11:33:52;6.70;99.90
8220;DHT22;4151;51.110;7.020;2023-02-01T11:36:25;6.70;99.90
8220;DHT22;4151;51.110;7.020;2023-02-01T11:42:14;6.70;99.90
8220;DHT22;4151;51.110;7.020;2023-02-01T11:44:45;6.80;99.90
8220;DHT22;4151;51.110;7.020;2023-02-01T11:47:26;6.80;99.90
8220;DHT22;4151;51.110;7.020;2023-02-01T11:50:00;6.80;99.90
8220;DHT22;4151;51.110;7.020;2023-02-01T11:52:41;6.80;99.90
8220;DHT22;4151;51.110;7.020;2023-02-01T11:55:59;6.80;99.90
8220;DHT22;4151;51.110;7.020;2023-02-01T11:58:22;6.80;99.90
8220;DHT22;4151;51.110;7.020;2023-02-01T12:01:12;6.80;99.90
8220;DHT22;4151;51.110;7.020;2023-02-01T12:04:12;6.80;99.90
8220;DHT22;4151;51.110;7.020;2023-02-01T12:06:52;6.80;99.90
8220;DHT22;4151;51.110;7.020;2023-02-01T12:15:04;6.80;99.90
8220;DHT22;4151;51.110;7.020;2023-02-01T12:17:53;6.90;99.90
8220;DHT22;4151;51.110;7.020;2023-02-01T12:20:30;6.80;99.90
8220;DHT22;4151;51.110;7.020;2023-02-01T12:23:10;6.90;99.90
8220;DHT22;4151;51.110;7.020;2023-02-01T12:34:02;7.00;99.90
8220;DHT22;4151;51.110;7.020;2023-02-01T12:46:43;7.10;99.90
8220;DHT22;4151;51.110;7.020;2023-02-01T12:49:18;7.10;99.90
8220;DHT22;4151;51.110;7.020;2023-02-01T12:51:48;7.00;99.90
8220;DHT22;4151;51.110;7.020;2023-02-01T12:54:19;7.00;99.90
8220;DHT22;4151;51.110;7.020;2023-02-01T12:56:53;7.00;99.90
8220;DHT22;4151;51.110;7.020;2023-02-01T12:59:46;6.80;99.90
8220;DHT22;4151;51.110;7.020;2023-02-01T13:02:18;6.80;99.90
8220;DHT22;4151;51.110;7.020;2023-02-01T13:07:22;6.70;99.90
8220;DHT22;4151;51.110;7.020;2023-02-01T13:10:18;6.70;99.90
8220;DHT22;4151;51.110;7.020;2023-02-01T13:12:51;6.70;99.90
8220;DHT22;4151;51.110;7.020;2023-02-01T13:15:28;6.80;99.90
8220;DHT22;4151;51.110;7.020;2023-02-01T13:18:00;6.90;99.90
8220;DHT22;4151;51.110;7.020;2023-02-01T13:23:08;7.00;99.90
8220;DHT22;4151;51.110;7.020;2023-02-01T13:25:43;7.10;99.90
8220;DHT22;4151;51.110;7.020;2023-02-01T13:28:16;7.20;99.90
8220;DHT22;4151;51.110;7.020;2023-02-01T13:34:06;7.30;99.90
8220;DHT22;4151;51.110;7.020;2023-02-01T13:37:02;7.30;99.90
8220;DHT22;4151;51.110;7.020;2023-02-01T13:42:24;7.30;99.90
8220;DHT22;4151;51.110;7.020;2023-02-01T13:44:55;7.30;99.90
8220;DHT22;4151;51.110;7.020;2023-02-01T13:47:31;7.30;99.90
8220;DHT22;4151;51.110;7.020;2023-02-01T13:50:01;7.20;99.90
8220;DHT22;4151;51.110;7.020;2023-02-01T13:52:38;7.30;99.90
8220;DHT22;4151;51.110;7.020;2023-02-01T13:57:46;7.30;99.90
8220;DHT22;4151;51.110;7.020;2023-02-01T14:00:32;7.30;99.90
8220;DHT22;4151;51.110;7.020;2023-02-01T14:03:02;7.30;99.90
8220;DHT22;4151;51.110;7.020;2023-02-01T14:10:53;7.30;99.90
8220;DHT22;4151;51.110;7.020;2023-02-01T14:13:31;7.30;99.90
8220;DHT22;4151;51.110;7.020;2023-02-01T14:21:42;7.50;99.90
8220;DHT22;4151;51.110;7.020;2023-02-01T14:24:22;7.50;99.90
8220;DHT22;4151;51.110;7.020;2023-02-01T14:26:53;7.50;99.90
8220;DHT22;4151;51.110;7.020;2023-02-01T14:29:32;7.50;99.90
8220;DHT22;4151;51.110;7.020;2023-02-01T14:47:45;7.60;99.90
8220;DHT22;4151;51.110;7.020;2023-02-01T14:50:22;7.60;99.90
8220;DHT22;4151;51.110;7.020;2023-02-01T14:55:39;7.60;99.90
8220;DHT22;4151;51.110;7.020;2023-02-01T15:00:51;7.60;99.90
8220;DHT22;4151;51.110;7.020;2023-02-01T15:03:47;7.60;99.90
8220;DHT22;4151;51.110;7.020;2023-02-01T15:06:22;7.60;99.90
8220;DHT22;4151;51.110;7.020;2023-02-01T15:08:49;7.60;99.90
8220;DHT22;4151;51.110;7.020;2023-02-01T15:11:17;7.60;99.90
8220;DHT22;4151;51.110;7.020;2023-02-01T15:13:51;7.60;99.90
8220;DHT22;4151;51.110;7.020;2023-02-01T15:16:19;7.60;99.90
8220;DHT22;4151;51.110;7.020;2023-02-01T15:18:45;7.60;99.90
8220;DHT22;4151;51.110;7.020;2023-02-01T15:21:24;7.70;99.90
8220;DHT22;4151;51.110;7.020;2023-02-01T15:23:50;7.70;99.90
8220;DHT22;4151;51.110;7.020;2023-02-01T15:26:35;7.70;99.90
8220;DHT22;4151;51.110;7.020;2023-02-01T15:29:00;7.70;99.90
8220;DHT22;4151;51.110;7.020;2023-02-01T15:31:35;7.70;99.90
8220;DHT22;4151;51.110;7.020;2023-02-01T15:34:01;7.70;99.90
8220;DHT22;4151;51.110;7.020;2023-02-01T15:36:26;7.70;99.90
8220;DHT22;4151;51.110;7.020;2023-02-01T15:39:14;7.70;99.90
8220;DHT22;4151;51.110;7.020;2023-02-01T15:41:47;7.70;99.90
8220;DHT22;4151;51.110;7.020;2023-02-01T15:44:17;7.70;99.90
8220;DHT22;4151;51.110;7.020;2023-02-01T15:46:46;7.70;99.90
8220;DHT22;4151;51.110;7.020;2023-02-01T15:49:29;7.70;99.90
8220;DHT22;4151;51.110;7.020;2023-02-01T15:51:55;7.70;99.90
8220;DHT22;4151;51.110;7.020;2023-02-01T15:54:41;7.70;99.90
8220;DHT22;4151;51.110;7.020;2023-02-01T15:57:09;7.70;99.90
8220;DHT22;4151;51.110;7.020;2023-02-01T15:59:43;7.70;99.90
8220;DHT22;4151;51.110;7.020;2023-02-01T16:04:52;7.70;99.90
8220;DHT22;4151;51.110;7.020;2023-02-01T16:07:30;7.70;99.90
8220;DHT22;4151;51.110;7.020;2023-02-01T16:09:58;7.70;99.90
8220;DHT22;4151;51.110;7.020;2023-02-01T16:15:04;7.70;99.90
8220;DHT22;4151;51.110;7.020;2023-02-01T16:17:30;7.70;99.90
8220;DHT22;4151;51.110;7.020;2023-02-01T16:19:56;7.70;99.90
8220;DHT22;4151;51.110;7.020;2023-02-01T16:22:23;7.70;99.90
8220;DHT22;4151;51.110;7.020;2023-02-01T16:24:49;7.70;99.90
8220;DHT22;4151;51.110;7.020;2023-02-01T16:27:15;7.70;99.90
8220;DHT22;4151;51.110;7.020;2023-02-01T16:29:40;7.70;99.90
8220;DHT22;4151;51.110;7.020;2023-02-01T16:32:08;7.70;99.90
8220;DHT22;4151;51.110;7.020;2023-02-01T16:34:36;7.70;99.90
8220;DHT22;4151;51.110;7.020;2023-02-01T16:37:03;7.70;99.90
8220;DHT22;4151;51.110;7.020;2023-02-01T16:39:28;7.80;99.90
8220;DHT22;4151;51.110;7.020;2023-02-01T16:41:55;7.70;99.90
8220;DHT22;4151;51.110;7.020;2023-02-01T16:44:20;7.80;99.90
8220;DHT22;4151;51.110;7.020;2023-02-01T16:46:47;7.70;99.90
8220;DHT22;4151;51.110;7.020;2023-02-01T16:49:22;7.60;99.90
8220;DHT22;4151;51.110;7.020;2023-02-01T16:51:50;7.50;99.90
8220;DHT22;4151;51.110;7.020;2023-02-01T16:54:18;7.50;99.90
8220;DHT22;4151;51.110;7.020;2023-02-01T16:56:44;7.50;99.90
8220;DHT22;4151;51.110;7.020;2023-02-01T16:59:10;7.60;99.90
8220;DHT22;4151;51.110;7.020;2023-02-01T17:01:36;7.60;99.90
8220;DHT22;4151;51.110;7.020;2023-02-01T17:04:03;7.70;99.90
8220;DHT22;4151;51.110;7.020;2023-02-01T17:06:30;7.70;99.90
8220;DHT22;4151;51.110;7.020;2023-02-01T17:08:58;7.60;99.90
8220;DHT22;4151;51.110;7.020;2023-02-01T17:11:24;7.70;99.90
8220;DHT22;4151;51.110;7.020;2023-02-01T17:13:50;7.70;99.90
8220;DHT22;4151;51.110;7.020;2023-02-01T17:18:52;7.60;99.90
8220;DHT22;4151;51.110;7.020;2023-02-01T17:21:18;7.60;99.90
8220;DHT22;4151;51.110;7.020;2023-02-01T17:23:43;7.60;99.90
8220;DHT22;4151;51.110;7.020;2023-02-01T17:26:10;7.70;99.90
8220;DHT22;4151;51.110;7.020;2023-02-01T17:28:36;7.60;99.90
8220;DHT22;4151;51.110;7.020;2023-02-01T17:31:02;7.60;99.90
8220;DHT22;4151;51.110;7.020;2023-02-01T17:33:34;7.60;99.90
8220;DHT22;4151;51.110;7.020;2023-02-01T17:36:01;7.60;99.90
8220;DHT22;4151;51.110;7.020;2023-02-01T17:38:27;7.60;99.90
8220;DHT22;4151;51.110;7.020;2023-02-01T17:40:53;7.60;99.90
8220;DHT22;4151;51.110;7.020;2023-02-01T17:43:24;7.60;99.90
8220;DHT22;4151;51.110;7.020;2023-02-01T17:45:54;7.60;99.90
8220;DHT22;4151;51.110;7.020;2023-02-01T17:48:21;7.60;99.90
8220;DHT22;4151;51.110;7.020;2023-02-01T17:50:48;7.60;99.90
8220;DHT22;4151;51.110;7.020;2023-02-01T17:53:16;7.60;99.90
8220;DHT22;4151;51.110;7.020;2023-02-01T17:55:45;7.60;99.90
8220;DHT22;4151;51.110;7.020;2023-02-01T17:58:12;7.60;99.90
8220;DHT22;4151;51.110;7.020;2023-02-01T18:00:40;7.60;99.90
8220;DHT22;4151;51.110;7.020;2023-02-01T18:03:05;7.60;99.90
8220;DHT22;4151;51.110;7.020;2023-02-01T18:05:38;7.60;99.90
8220;DHT22;4151;51.110;7.020;2023-02-01T18:08:06;7.60;99.90
8220;DHT22;4151;51.110;7.020;2023-02-01T18:10:31;7.60;99.90
8220;DHT22;4151;51.110;7.020;2023-02-01T18:12:57;7.60;99.90
8220;DHT22;4151;51.110;7.020;2023-02-01T18:15:24;7.60;99.90
8220;DHT22;4151;51.110;7.020;2023-02-01T18:17:50;7.60;99.90
8220;DHT22;4151;51.110;7.020;2023-02-01T18:20:21;7.60;99.90
8220;DHT22;4151;51.110;7.020;2023-02-01T18:22:47;7.60;99.90
8220;DHT22;4151;51.110;7.020;2023-02-01T18:25:20;7.60;99.90
8220;DHT22;4151;51.110;7.020;2023-02-01T18:27:48;7.60;99.90
8220;DHT22;4151;51.110;7.020;2023-02-01T18:30:14;7.60;99.90
8220;DHT22;4151;51.110;7.020;2023-02-01T18:32:40;7.60;99.90
8220;DHT22;4151;51.110;7.020;2023-02-01T18:35:26;7.60;99.90